createdAt,value
2019-02-28T00:00:06.686Z,40.43
2019-02-28T00:05:14.399Z,38.93
2019-02-28T00:10:19.818Z,42.93
2019-02-28T00:15:25.386Z,39.30
2019-02-28T00:20:31.967Z,40.40
2019-02-28T00:25:38.584Z,42.50
2019-02-28T00:30:43.828Z,42.10
2019-02-28T00:35:49.181Z,37.00
2019-02-28T00:40:55.665Z,36.47
2019-02-28T00:46:01.421Z,40.00
2019-02-28T00:51:06.683Z,37.70
2019-02-28T00:56:11.932Z,40.00
2019-02-28T01:01:17.805Z,39.57
2019-02-28T01:06:23.179Z,41.07
2019-02-28T01:11:28.427Z,42.43
2019-02-28T01:16:34.088Z,40.90
2019-02-28T01:21:39.491Z,41.60
2019-02-28T01:26:46.773Z,44.33
2019-02-28T01:31:51.810Z,41.80
2019-02-28T01:36:57.053Z,44.70
2019-02-28T01:42:02.573Z,43.40
2019-02-28T01:47:07.874Z,43.20
2019-02-28T01:52:13.488Z,44.33
2019-02-28T01:57:18.904Z,43.63
2019-02-28T02:02:24.281Z,45.10
2019-02-28T02:07:33.336Z,43.33
2019-02-28T02:12:38.658Z,45.43
2019-02-28T02:17:44.026Z,50.20
2019-02-28T02:22:49.282Z,46.83
2019-02-28T02:27:54.501Z,46.67
2019-02-28T02:32:59.858Z,49.13
2019-02-28T02:38:05.374Z,46.87
2019-02-28T02:43:10.521Z,50.73
2019-02-28T02:48:15.766Z,53.40
2019-02-28T02:53:20.928Z,55.60
2019-02-28T02:58:27.990Z,58.37
2019-02-28T03:03:32.967Z,60.23
2019-02-28T03:08:38.022Z,63.73
2019-02-28T03:13:44.190Z,58.97
2019-02-28T03:18:56.945Z,66.50
2019-02-28T03:23:56.451Z,64.77
2019-02-28T03:29:07.558Z,69.57
2019-02-28T03:34:13.422Z,68.63
2019-02-28T03:39:17.198Z,74.47
2019-02-28T03:44:22.599Z,78.77
2019-02-28T03:49:27.795Z,79.87
2019-02-28T03:54:33.498Z,83.77
2019-02-28T03:59:38.779Z,85.83
2019-02-28T04:04:49.092Z,84.07
2019-02-28T04:09:51.226Z,84.57
2019-02-28T04:14:56.618Z,88.87
2019-02-28T04:20:01.917Z,88.20
2019-02-28T04:25:10.286Z,85.60
2019-02-28T04:30:16.257Z,82.53
2019-02-28T04:35:25.265Z,85.33
2019-02-28T04:40:29.125Z,86.87
2019-02-28T04:45:34.584Z,75.33
2019-02-28T04:50:39.743Z,84.10
2019-02-28T04:55:45.201Z,78.40
2019-02-28T05:00:50.314Z,83.90
2019-02-28T05:05:55.715Z,94.83
2019-02-28T05:11:01.025Z,83.83
2019-02-28T05:16:09.382Z,90.07
2019-02-28T05:21:16.590Z,88.63
2019-02-28T05:26:23.420Z,86.57
2019-02-28T05:31:28.057Z,94.50
2019-02-28T05:36:34.636Z,100.50
2019-02-28T05:41:40.381Z,97.73
2019-02-28T05:46:45.536Z,97.40
2019-02-28T05:51:50.978Z,97.73
2019-02-28T05:56:56.460Z,100.80
2019-02-28T06:02:01.973Z,108.83
2019-02-28T06:07:09.333Z,106.17
2019-02-28T06:12:14.402Z,104.50
2019-02-28T06:17:20.910Z,121.30
2019-02-28T06:22:26.301Z,113.00
2019-02-28T06:27:40.868Z,108.50
2019-02-28T06:32:38.689Z,122.03
2019-02-28T06:37:44.145Z,125.07
2019-02-28T06:42:49.401Z,126.57
2019-02-28T06:47:54.858Z,131.50
2019-02-28T06:53:00.319Z,126.87
2019-02-28T06:58:05.787Z,120.30
2019-02-28T07:03:11.183Z,134.93
2019-02-28T07:08:16.510Z,113.97
2019-02-28T07:13:21.754Z,120.30
2019-02-28T07:18:26.906Z,109.77
2019-02-28T07:23:32.473Z,103.30
2019-02-28T07:28:37.855Z,123.13
2019-02-28T07:33:44.586Z,115.37
2019-02-28T07:38:50.561Z,110.40
2019-02-28T07:43:55.686Z,96.30
2019-02-28T07:49:01.606Z,104.33
2019-02-28T07:54:06.991Z,105.53
2019-02-28T07:59:12.246Z,101.50
2019-02-28T08:04:18.514Z,104.47
2019-02-28T08:09:27.262Z,96.27
2019-02-28T08:14:32.624Z,84.27
2019-02-28T08:19:37.973Z,74.43
2019-02-28T08:24:43.314Z,86.03
2019-02-28T08:29:48.494Z,78.27
2019-02-28T08:34:55.493Z,79.33
2019-02-28T08:40:02.011Z,76.93
2019-02-28T08:45:13.112Z,85.93
2019-02-28T08:50:24.053Z,71.90
2019-02-28T08:55:29.573Z,66.20
2019-02-28T09:00:35.297Z,68.00
2019-02-28T09:05:40.549Z,64.03
2019-02-28T09:10:46.972Z,70.07
2019-02-28T09:15:53.103Z,63.40
2019-02-28T09:20:58.461Z,59.93
2019-02-28T09:26:03.783Z,64.80
2019-02-28T09:31:09.180Z,57.63
2019-02-28T09:36:20.220Z,72.50
2019-02-28T09:41:21.834Z,57.43
2019-02-28T09:46:27.089Z,62.37
2019-02-28T09:51:32.851Z,57.23
2019-02-28T09:56:41.217Z,53.30
2019-02-28T10:01:45.527Z,48.13
2019-02-28T10:06:51.612Z,57.07
2019-02-28T10:11:57.680Z,64.53
2019-02-28T10:17:03.048Z,53.30
2019-02-28T10:22:10.114Z,58.00
2019-02-28T10:27:15.902Z,50.37
2019-02-28T10:32:21.280Z,58.97
2019-02-28T10:37:26.848Z,45.00
2019-02-28T10:42:32.282Z,43.60
2019-02-28T10:47:37.545Z,40.30
2019-02-28T10:52:43.007Z,34.90
2019-02-28T10:57:49.370Z,29.77
2019-02-28T11:02:57.477Z,35.20
2019-02-28T11:08:02.928Z,27.70
2019-02-28T11:13:11.401Z,27.27
2019-02-28T11:18:16.963Z,19.80
2019-02-28T11:23:23.462Z,24.97
2019-02-28T11:28:29.313Z,21.90
2019-02-28T11:33:36.472Z,16.80
2019-02-28T11:38:42.056Z,26.93
2019-02-28T11:43:47.739Z,21.07
2019-02-28T11:48:54.130Z,27.33
2019-02-28T11:54:00.549Z,46.70
2019-02-28T11:59:06.219Z,24.90
2019-02-28T12:04:11.752Z,17.33
2019-02-28T12:09:19.231Z,18.33
2019-02-28T12:14:26.461Z,13.83
2019-02-28T12:19:32.032Z,13.73
2019-02-28T12:24:38.518Z,18.33
2019-02-28T12:29:45.566Z,14.63
2019-02-28T12:34:50.817Z,7.67
2019-02-28T12:39:56.143Z,9.73
2019-02-28T12:45:01.510Z,7.63
2019-02-28T12:50:09.815Z,79.57
2019-02-28T12:55:18.543Z,20.10
2019-02-28T13:00:35.074Z,11.17
2019-02-28T13:05:40.729Z,10.47
2019-02-28T13:10:47.317Z,7.10
2019-02-28T13:15:52.725Z,7.17
2019-02-28T13:20:58.029Z,5.00
2019-02-28T13:26:03.399Z,10.13
2019-02-28T13:31:08.963Z,5.17
2019-02-28T13:36:14.112Z,10.73
2019-02-28T13:41:22.129Z,8.60
2019-02-28T13:46:32.342Z,5.90
2019-02-28T13:51:40.479Z,13.77
2019-02-28T13:56:40.985Z,12.13
2019-02-28T14:01:46.329Z,11.77
2019-02-28T14:06:52.531Z,7.67
2019-02-28T14:11:59.033Z,9.53
2019-02-28T14:17:04.556Z,5.77
2019-02-28T14:22:11.565Z,11.97
2019-02-28T14:27:17.927Z,5.70
2019-02-28T14:32:23.215Z,4.57
2019-02-28T14:37:28.548Z,5.20
2019-02-28T14:42:33.908Z,4.63
2019-02-28T14:47:39.166Z,5.07
2019-02-28T14:52:45.848Z,5.73
2019-02-28T14:57:51.417Z,4.63
2019-02-28T15:02:59.483Z,4.53
2019-02-28T15:08:04.393Z,6.37
2019-02-28T15:13:10.063Z,7.97
2019-02-28T15:18:15.456Z,5.07
2019-02-28T15:23:20.581Z,4.43
2019-02-28T15:28:25.875Z,5.43
2019-02-28T15:33:31.259Z,6.03
2019-02-28T15:38:36.642Z,10.43
2019-02-28T15:43:41.766Z,5.70
2019-02-28T15:48:46.991Z,8.07
2019-02-28T15:53:52.134Z,4.43
2019-02-28T15:58:57.629Z,91.23
2019-02-28T16:04:03.247Z,53.37
2019-02-28T16:09:11.558Z,12.50
2019-02-28T16:14:17.235Z,6.37
2019-02-28T16:19:22.832Z,8.73
2019-02-28T16:24:28.358Z,10.43
2019-02-28T16:29:33.564Z,10.40
2019-02-28T16:34:42.324Z,20.60
2019-02-28T16:39:49.158Z,15.20
2019-02-28T16:44:52.979Z,18.03
2019-02-28T16:49:58.228Z,16.23
2019-02-28T16:55:03.905Z,18.87
2019-02-28T17:00:15.986Z,14.10
2019-02-28T17:05:26.743Z,27.17
2019-02-28T17:10:33.384Z,20.50
2019-02-28T17:15:40.235Z,27.80
2019-02-28T17:20:49.118Z,32.30
2019-02-28T17:25:56.527Z,27.77
2019-02-28T17:31:20.930Z,28.83
2019-02-28T17:36:27.979Z,40.13
2019-02-28T17:41:33.935Z,27.10
2019-02-28T17:46:40.343Z,27.13
2019-02-28T17:51:48.793Z,24.83
2019-02-28T17:57:12.202Z,32.87
2019-02-28T18:02:47.765Z,31.30
2019-02-28T18:08:05.201Z,30.80
2019-02-28T18:13:16.224Z,36.10
2019-02-28T18:18:35.686Z,37.30
2019-02-28T18:24:04.285Z,27.57
2019-02-28T18:29:33.073Z,25.43
2019-02-28T18:34:38.477Z,25.73
2019-02-28T18:39:44.669Z,25.50
2019-02-28T18:44:50.963Z,23.77
2019-02-28T18:49:56.477Z,28.67
2019-02-28T18:55:06.032Z,21.70
2019-02-28T19:00:13.344Z,29.13
2019-02-28T19:05:18.804Z,23.07
2019-02-28T19:10:24.523Z,29.13
2019-02-28T19:15:31.278Z,28.50
2019-02-28T19:20:36.717Z,22.23
2019-02-28T19:25:42.564Z,88.97
2019-02-28T19:30:48.097Z,26.50
2019-02-28T19:35:54.641Z,205.97
2019-02-28T19:41:00.010Z,23.70
2019-02-28T19:46:05.655Z,26.27
2019-02-28T19:51:10.879Z,26.03
2019-02-28T19:56:16.380Z,29.90
2019-02-28T20:01:21.941Z,24.00
2019-02-28T20:06:27.301Z,25.57
2019-02-28T20:11:32.998Z,26.27
2019-02-28T20:16:38.423Z,31.30
2019-02-28T20:21:44.273Z,72.03
2019-02-28T20:26:50.570Z,22.77
2019-02-28T20:31:56.033Z,33.27
2019-02-28T20:37:01.401Z,27.40
2019-02-28T20:42:07.963Z,24.90
2019-02-28T20:47:13.518Z,19.90
2019-02-28T20:52:18.768Z,24.80
2019-02-28T20:57:24.069Z,21.37
2019-02-28T21:02:29.495Z,24.53
2019-02-28T21:07:35.391Z,30.33
2019-02-28T21:12:40.964Z,26.87
2019-02-28T21:17:46.231Z,20.77
2019-02-28T21:22:51.665Z,20.07
2019-02-28T21:27:57.247Z,20.73
2019-02-28T21:33:02.982Z,21.70
2019-02-28T21:38:08.340Z,18.87
2019-02-28T21:43:13.711Z,22.83
2019-02-28T21:48:19.190Z,16.83
2019-02-28T21:53:24.422Z,21.60
2019-02-28T21:58:31.219Z,17.43
2019-02-28T22:03:36.791Z,15.73
2019-02-28T22:08:42.154Z,18.27
2019-02-28T22:13:47.619Z,18.00
2019-02-28T22:18:52.849Z,21.20
2019-02-28T22:23:58.132Z,14.70
2019-02-28T22:29:03.454Z,15.93
2019-02-28T22:34:13.364Z,16.53
2019-02-28T22:39:18.697Z,17.00
2019-02-28T22:44:24.072Z,19.73
2019-02-28T22:49:29.739Z,16.73
2019-02-28T22:54:34.996Z,15.67
2019-02-28T22:59:40.361Z,17.43
2019-02-28T23:04:46.059Z,16.97
2019-02-28T23:09:51.496Z,14.57
2019-02-28T23:14:56.763Z,16.40
2019-02-28T23:20:02.203Z,19.60
2019-02-28T23:25:08.775Z,18.10
2019-02-28T23:30:29.991Z,18.53
2019-02-28T23:35:35.858Z,19.37
2019-02-28T23:40:41.444Z,20.00
2019-02-28T23:45:47.008Z,15.63
2019-02-28T23:50:52.490Z,21.43
2019-02-28T23:55:58.236Z,21.30
